Airfield :
LOGIN :

Register | Disclaimer

   EN    FR    IT 

 










Legend :    VFR   Marginal VFR   IFR   Intensive IFR   Very Intensive IFR
Visi :
Ceiling :
>= 8 km
>= 3000ft
5 to 8 km
1000 to 3000 ft
1500m to 5 km
500 to 1000 ft
800 to 1500m
200 to 500 ft
< 800m
< 200 ft
Symbols :   Thunderstorms  Fog  Heavy snow  Heavy precipitations  Wind > 20 kt
SIGMETs :     Misc.  Thunderstorms  Icing  Turbulence  Mountain Waves  Volcanic Ashes






- Airport Elevation : 538 ft
- IATA code : TNF


LFPN - Toussus Le Noble

CURRENT METAR :
  • 300930Z AUTO 28004KT 230V310 CAVOK 15/09 Q1012 NOSIG

EXPIRED METARs :
  • 300900Z AUTO VRB02KT CAVOK 15/09 Q1012 NOSIG
  • 300830Z AUTO VRB01KT CAVOK 13/09 Q1012 NOSIG
  • 300800Z AUTO 00000KT CAVOK 11/08 Q1012 NOSIG
  • 300730Z AUTO VRB01KT CAVOK 09/08 Q1012 NOSIG
  • 300700Z AUTO 00000KT 8000 NSC 08/07 Q1012 TEMPO 4000 BR

TAF TAF LFPN
Valid from the 30 at 09:00 until the 30 at 18:00 UTC


300800Z 3009/3018 20005KT CAVOK
BECMG 3012/3014 22010KT
ATIS : +33 1 39 56 54 70



MET'MAP, your aeronautical weather chart ! - Copyright ORBIFLY December 2007 - Disclaimer

ORBIFLY MET'MAP TEAM :

Programming & Development : Alexandra Zaïnal
Original concept : Baudouin d'Aumeries
Technical & hardware support : Manuel Goepfert
Assistance : Marc-Olivier Méhu




SOURCES & CREDITS :

   NOAA